Time;durP1;ratioP1;P1;durP2;ratioP2;P2;SDS_P1;SDS_P2;PMS_P1;PMS_P2;Temp;Humidity;BMP_temperature;BMP_pressure;BME280_temperature;BME280_humidity;BME280_pressure;Samples;Min_cycle;Max_cycle;Signal;HPM_P1;HPM_P2
2021/04/05 00:02:10;;;;;;;24.88;16.27;;;7.10;74.40;;;;;;5072118;28;20033;-73
2021/04/05 00:04:36;;;;;;;23.00;14.60;;;7.10;74.40;;;;;;5069210;28;20044;-74
2021/04/05 00:07:02;;;;;;;24.52;14.65;;;7.10;74.50;;;;;;5063558;28;20500;-74
2021/04/05 00:09:28;;;;;;;24.90;14.02;;;7.10;74.60;;;;;;5062687;28;20119;-74
2021/04/05 00:11:53;;;;;;;30.38;16.05;;;7.00;74.60;;;;;;5067616;28;20111;-74
2021/04/05 00:14:19;;;;;;;19.27;13.25;;;7.00;74.80;;;;;;5070006;28;20033;-74
2021/04/05 00:16:44;;;;;;;27.45;16.05;;;7.00;74.80;;;;;;5061218;28;20041;-74
2021/04/05 00:19:10;;;;;;;25.15;14.70;;;7.10;75.00;;;;;;5068153;28;20485;-73
2021/04/05 00:21:36;;;;;;;22.88;14.90;;;7.10;75.00;;;;;;5061256;28;20056;-74
2021/04/05 00:24:01;;;;;;;25.10;14.82;;;7.10;75.00;;;;;;5073116;28;20028;-74
2021/04/05 00:26:27;;;;;;;26.92;14.45;;;7.10;75.00;;;;;;5048749;28;20533;-73
2021/04/05 00:28:52;;;;;;;26.13;14.20;;;7.10;75.00;;;;;;5056655;28;20041;-74
2021/04/05 00:31:18;;;;;;;27.65;13.65;;;7.10;75.10;;;;;;5059355;28;20378;-74
2021/04/05 00:33:44;;;;;;;27.85;14.98;;;7.10;75.10;;;;;;5055372;28;20033;-74
2021/04/05 00:36:10;;;;;;;23.45;15.02;;;7.10;75.20;;;;;;5064110;28;20025;-74
2021/04/05 00:38:35;;;;;;;26.35;15.23;;;7.10;75.30;;;;;;5067376;28;20548;-74
2021/04/05 00:41:10;;;;;;;25.30;15.02;;;7.20;75.30;;;;;;5072514;28;20028;-74
2021/04/05 00:43:37;;;;;;;25.55;16.35;;;7.20;75.50;;;;;;5056015;28;20021;-74
2021/04/05 00:46:04;;;;;;;22.77;16.02;;;7.20;75.60;;;;;;5064283;28;20079;-74
2021/04/05 00:48:31;;;;;;;31.25;16.20;;;7.20;75.70;;;;;;5055671;28;20060;-74
2021/04/05 00:51:06;;;;;;;25.98;15.55;;;7.20;75.60;;;;;;5054531;28;20033;-74
2021/04/05 00:53:37;;;;;;;25.23;15.43;;;7.20;75.60;;;;;;5054704;28;20102;-74
2021/04/05 00:56:04;;;;;;;28.90;16.67;;;7.20;75.60;;;;;;5054227;28;20504;-74
2021/04/05 00:58:30;;;;;;;31.00;17.45;;;7.20;75.60;;;;;;5033735;28;20355;-74
2021/04/05 01:01:00;;;;;;;24.98;15.52;;;7.30;75.70;;;;;;5043084;28;20029;-74
2021/04/05 01:03:30;;;;;;;26.75;15.75;;;7.20;75.60;;;;;;5054242;28;20500;-74
2021/04/05 01:06:01;;;;;;;26.42;16.48;;;7.20;75.60;;;;;;5054140;28;20119;-74
2021/04/05 01:08:28;;;;;;;30.63;18.20;;;7.20;75.60;;;;;;5053997;28;20485;-74
2021/04/05 01:10:54;;;;;;;33.25;18.27;;;7.30;75.60;;;;;;5036576;28;20033;-74
2021/04/05 01:13:20;;;;;;;27.25;16.98;;;7.20;75.80;;;;;;5054202;28;20390;-74
2021/04/05 01:15:46;;;;;;;32.10;18.35;;;7.20;76.40;;;;;;5053763;28;20074;-73
2021/04/05 01:18:16;;;;;;;33.75;15.98;;;7.30;75.90;;;;;;5053114;28;20438;-74
2021/04/05 01:20:43;;;;;;;31.13;18.58;;;7.20;75.80;;;;;;5053855;28;20025;-74
2021/04/05 01:23:09;;;;;;;29.65;16.88;;;7.20;75.90;;;;;;5033339;28;20033;-74
2021/04/05 01:25:35;;;;;;;26.15;16.98;;;7.20;75.90;;;;;;5053625;28;20104;-73
2021/04/05 01:28:00;;;;;;;26.27;16.35;;;7.20;76.10;;;;;;5054298;28;20025;-74
2021/04/05 01:30:32;;;;;;;26.70;16.50;;;7.20;76.00;;;;;;5052584;28;20466;-74
2021/04/05 01:33:00;;;;;;;31.85;17.92;;;7.20;76.10;;;;;;5050248;28;20504;-74
2021/04/05 01:35:26;;;;;;;25.27;15.70;;;7.20;76.10;;;;;;5053323;28;20124;-74
2021/04/05 01:37:52;;;;;;;29.60;16.45;;;7.20;76.20;;;;;;5052606;28;20036;-74
2021/04/05 01:40:17;;;;;;;32.83;16.70;;;7.20;76.20;;;;;;5053881;28;20029;-74
2021/04/05 01:42:43;;;;;;;26.60;14.98;;;7.20;76.20;;;;;;5053515;28;20028;-74
2021/04/05 01:45:09;;;;;;;29.92;15.63;;;7.20;76.20;;;;;;5052962;28;20071;-74
2021/04/05 01:47:35;;;;;;;26.08;15.02;;;7.20;76.90;;;;;;5053668;28;20083;-74
2021/04/05 01:50:00;;;;;;;30.45;14.73;;;7.20;76.20;;;;;;5066966;28;20519;-74
2021/04/05 01:52:26;;;;;;;35.35;15.23;;;7.20;76.20;;;;;;5065675;28;20020;-74
2021/04/05 01:54:51;;;;;;;31.13;16.35;;;7.20;76.30;;;;;;5062816;28;20037;-74
2021/04/05 01:57:17;;;;;;;25.17;15.07;;;7.10;76.60;;;;;;5064080;28;20397;-74
2021/04/05 01:59:43;;;;;;;28.63;16.55;;;7.10;76.50;;;;;;5060332;28;20070;-74
2021/04/05 02:02:09;;;;;;;30.48;16.60;;;7.10;77.40;;;;;;5064537;28;20505;-74
2021/04/05 02:04:36;;;;;;;32.17;16.73;;;7.10;76.80;;;;;;5058226;28;20025;-74
2021/04/05 02:07:02;;;;;;;26.40;15.75;;;7.10;76.80;;;;;;5051985;28;20454;-74
2021/04/05 02:09:28;;;;;;;31.15;15.75;;;7.10;76.90;;;;;;5063423;28;20031;-74
2021/04/05 02:11:54;;;;;;;31.63;15.00;;;7.10;77.10;;;;;;5060645;28;20028;-74
2021/04/05 02:14:20;;;;;;;34.47;15.73;;;7.00;77.00;;;;;;5058845;28;20025;-74
2021/04/05 02:16:46;;;;;;;30.45;14.88;;;7.10;77.20;;;;;;5053096;28;20078;-73
2021/04/05 02:19:15;;;;;;;28.85;15.93;;;7.00;77.20;;;;;;5053166;28;20029;-74
2021/04/05 02:21:46;;;;;;;26.10;15.55;;;7.00;77.30;;;;;;5055119;28;20029;-74
2021/04/05 02:24:14;;;;;;;30.80;16.35;;;7.00;77.40;;;;;;5061660;28;20028;-74
2021/04/05 02:26:42;;;;;;;28.23;14.82;;;7.00;78.00;;;;;;5065294;28;20020;-74
2021/04/05 02:29:08;;;;;;;25.70;14.90;;;7.00;77.40;;;;;;5057382;28;20033;-74
2021/04/05 02:31:35;;;;;;;24.73;14.48;;;7.00;77.40;;;;;;5065031;28;20044;-74
2021/04/05 02:34:02;;;;;;;31.15;16.70;;;7.00;77.60;;;;;;5063062;28;20066;-74
2021/04/05 02:36:31;;;;;;;28.13;15.23;;;6.90;77.70;;;;;;5059633;28;20032;-74
2021/04/05 02:38:59;;;;;;;34.92;14.77;;;6.90;77.80;;;;;;5070079;28;20024;-74
2021/04/05 02:41:28;;;;;;;28.52;14.52;;;6.90;77.80;;;;;;5061958;28;20142;-74
2021/04/05 02:43:55;;;;;;;34.10;16.52;;;6.90;77.80;;;;;;5060479;28;20103;-73
2021/04/05 02:46:28;;;;;;;34.53;16.48;;;6.90;77.80;;;;;;5055049;28;20045;-74
2021/04/05 02:48:56;;;;;;;31.23;15.68;;;6.90;78.00;;;;;;5075797;28;20500;-74
2021/04/05 02:51:23;;;;;;;31.40;15.98;;;6.90;78.00;;;;;;5092594;28;20032;-74
2021/04/05 02:53:53;;;;;;;36.53;16.50;;;6.90;78.10;;;;;;5092495;28;20066;-74
2021/04/05 02:56:19;;;;;;;34.40;16.40;;;6.80;78.20;;;;;;5091469;28;20043;-73
2021/04/05 02:58:47;;;;;;;32.65;16.58;;;6.80;78.50;;;;;;5073592;28;20083;-73
2021/04/05 03:01:14;;;;;;;29.65;15.45;;;6.70;78.60;;;;;;5092167;28;20473;-74
2021/04/05 03:03:42;;;;;;;30.88;14.82;;;6.70;78.60;;;;;;5092968;28;20016;-74
2021/04/05 03:06:10;;;;;;;30.73;15.80;;;6.80;78.80;;;;;;5092294;28;20031;-74
2021/04/05 03:08:36;;;;;;;31.17;14.65;;;6.80;78.90;;;;;;5092666;28;20056;-74
2021/04/05 03:11:04;;;;;;;30.98;15.10;;;6.80;78.80;;;;;;5074343;28;20078;-74
2021/04/05 03:13:33;;;;;;;30.10;14.10;;;6.80;78.90;;;;;;5092878;28;20036;-74
2021/04/05 03:15:59;;;;;;;28.10;14.87;;;6.80;79.20;;;;;;5092293;28;20046;-74
2021/04/05 03:18:26;;;;;;;29.95;14.23;;;6.80;78.90;;;;;;5092539;28;20039;-74
2021/04/05 03:20:53;;;;;;;33.47;15.65;;;6.90;79.00;;;;;;5092459;28;20024;-74
2021/04/05 03:23:21;;;;;;;27.67;14.27;;;6.90;79.00;;;;;;5092443;28;20063;-74
2021/04/05 03:25:47;;;;;;;21.85;12.27;;;6.90;79.10;;;;;;5074279;28;20036;-74
2021/04/05 03:28:13;;;;;;;27.10;13.85;;;7.00;78.90;;;;;;5074475;28;20048;-74
2021/04/05 03:30:49;;;;;;;29.27;13.57;;;7.00;78.90;;;;;;5040654;28;20054;-74
2021/04/05 03:33:25;;;;;;;28.17;14.13;;;7.00;79.00;;;;;;5092430;28;20062;-74
2021/04/05 03:36:01;;;;;;;28.77;13.15;;;7.00;79.10;;;;;;5091847;28;20053;-74
2021/04/05 03:38:27;;;;;;;29.23;13.90;;;7.10;79.10;;;;;;5092044;28;20016;-74
2021/04/05 03:40:56;;;;;;;25.17;13.57;;;7.10;78.90;;;;;;5074159;28;20097;-74
2021/04/05 03:43:35;;;;;;;21.95;12.32;;;7.10;78.90;;;;;;5073986;28;20028;-74
2021/04/05 03:46:12;;;;;;;24.13;13.35;;;7.10;78.90;;;;;;5086296;28;20032;-74
2021/04/05 03:48:51;;;;;;;30.60;12.95;;;7.10;78.90;;;;;;5091639;28;20187;-74
2021/04/05 03:51:23;;;;;;;33.42;13.63;;;7.10;79.20;;;;;;5092283;28;20392;-74
2021/04/05 03:53:54;;;;;;;24.70;13.20;;;7.10;79.20;;;;;;5091975;28;20028;-74
2021/04/05 03:56:25;;;;;;;23.98;12.70;;;7.10;79.20;;;;;;5091544;28;20031;-74
2021/04/05 03:58:54;;;;;;;29.92;13.90;;;7.20;79.20;;;;;;5092338;28;20023;-74
2021/04/05 04:01:25;;;;;;;28.35;14.02;;;7.20;79.20;;;;;;5091984;28;20061;-74
2021/04/05 04:09:21;;;;;;;26.88;12.52;;;7.20;79.70;;;;;;5090430;28;20107;-74
2021/04/05 04:11:50;;;;;;;30.92;14.23;;;7.20;79.70;;;;;;5078163;28;20503;-74
2021/04/05 04:14:17;;;;;;;33.38;14.27;;;7.10;79.80;;;;;;5095910;28;20030;-74
2021/04/05 04:16:48;;;;;;;30.10;15.20;;;7.10;79.90;;;;;;5077309;28;20039;-74
2021/04/05 04:19:16;;;;;;;35.58;16.02;;;7.10;80.20;;;;;;5095865;28;20070;-74
2021/04/05 04:21:44;;;;;;;33.72;15.13;;;7.10;80.50;;;;;;5077427;28;20097;-75
2021/04/05 04:24:10;;;;;;;33.17;15.80;;;7.20;80.60;;;;;;5096132;28;20031;-74
2021/04/05 04:26:37;;;;;;;31.90;15.48;;;7.20;80.70;;;;;;5094819;28;20496;-74
2021/04/05 04:29:04;;;;;;;33.85;13.90;;;7.20;80.70;;;;;;5077969;28;20032;-74
2021/04/05 04:31:30;;;;;;;34.80;15.82;;;7.20;80.90;;;;;;5095840;28;20513;-74
2021/04/05 04:33:55;;;;;;;41.42;18.45;;;7.20;81.30;;;;;;5077280;28;20028;-74
2021/04/05 04:36:23;;;;;;;36.78;18.85;;;7.20;81.90;;;;;;5076779;28;20059;-74
2021/04/05 04:38:54;;;;;;;40.53;18.73;;;7.20;81.90;;;;;;5095487;28;20059;-74
2021/04/05 04:41:24;;;;;;;39.65;18.88;;;7.20;82.10;;;;;;5095125;28;20077;-74
2021/04/05 04:43:58;;;;;;;41.30;21.02;;;7.20;82.30;;;;;;5081119;28;20024;-74
2021/04/05 04:46:23;;;;;;;48.72;21.98;;;7.20;82.70;;;;;;5095305;28;20032;-75
2021/04/05 04:49:00;;;;;;;47.40;20.85;;;7.20;82.40;;;;;;5094953;28;20047;-74
2021/04/05 04:51:26;;;;;;;33.92;19.08;;;7.20;82.50;;;;;;5088148;28;20020;-74
2021/04/05 04:53:57;;;;;;;47.90;21.27;;;7.20;82.50;;;;;;5095445;28;20477;-74
2021/04/05 04:56:23;;;;;;;41.33;21.30;;;7.20;83.00;;;;;;5094874;28;20413;-74
2021/04/05 04:58:49;;;;;;;40.67;20.05;;;7.20;82.70;;;;;;5094880;28;20055;-74
2021/04/05 05:01:16;;;;;;;36.92;18.83;;;7.30;82.80;;;;;;5077138;28;20050;-74
2021/04/05 05:03:52;;;;;;;39.67;19.77;;;7.30;82.70;;;;;;5094633;28;20028;-74
2021/04/05 05:06:20;;;;;;;44.38;22.40;;;7.30;82.80;;;;;;5094757;28;20043;-74
2021/04/05 05:08:46;;;;;;;40.85;21.98;;;7.30;83.10;;;;;;5094803;28;20469;-74
2021/04/05 05:11:13;;;;;;;42.88;20.33;;;7.30;83.10;;;;;;5094991;28;20031;-75
2021/04/05 05:13:39;;;;;;;47.03;25.58;;;7.30;82.90;;;;;;5094748;28;20039;-74
2021/04/05 05:16:05;;;;;;;46.40;23.13;;;7.40;83.30;;;;;;5094698;28;20036;-74
2021/04/05 05:18:31;;;;;;;47.22;21.92;;;7.40;83.30;;;;;;5093822;28;20034;-74
2021/04/05 05:20:59;;;;;;;47.83;24.55;;;7.40;83.20;;;;;;5093581;28;20115;-74
2021/04/05 05:23:26;;;;;;;44.25;21.45;;;7.40;83.30;;;;;;5094086;28;20027;-74
2021/04/05 05:25:53;;;;;;;42.92;21.08;;;7.40;83.40;;;;;;5094395;28;20028;-74
2021/04/05 05:28:21;;;;;;;41.22;21.58;;;7.40;83.30;;;;;;5093895;28;20388;-74
2021/04/05 05:30:48;;;;;;;45.45;21.70;;;7.40;83.80;;;;;;5094335;28;20032;-74
2021/04/05 05:33:14;;;;;;;44.58;21.15;;;7.50;83.30;;;;;;5093946;28;20503;-74
2021/04/05 05:35:41;;;;;;;40.25;21.42;;;7.50;83.30;;;;;;5075339;28;20031;-74
2021/04/05 05:38:07;;;;;;;42.05;21.58;;;7.50;83.40;;;;;;5093633;28;20055;-74
2021/04/05 05:40:39;;;;;;;47.60;22.20;;;7.50;83.60;;;;;;5094196;28;20067;-74
2021/04/05 05:43:39;;;;;;;42.25;21.35;;;7.50;83.60;;;;;;5075298;28;20555;-74
2021/04/05 05:46:34;;;;;;;39.58;21.42;;;7.60;83.50;;;;;;5094213;28;20035;-74
2021/04/05 05:49:09;;;;;;;43.08;22.35;;;7.60;83.70;;;;;;5087351;28;20063;-74
2021/04/05 05:51:53;;;;;;;39.58;21.35;;;7.60;83.70;;;;;;5068566;28;20039;-74
2021/04/05 05:54:44;;;;;;;42.47;21.40;;;7.60;83.60;;;;;;5073639;28;20043;-74
2021/04/05 05:57:15;;;;;;;37.58;19.85;;;7.60;83.70;;;;;;5052857;28;20086;-74
2021/04/05 05:59:45;;;;;;;41.70;21.48;;;7.60;83.60;;;;;;5069999;28;20102;-74
2021/04/05 06:02:25;;;;;;;41.80;22.67;;;7.60;83.60;;;;;;5066386;28;20024;-74
2021/04/05 06:05:20;;;;;;;42.75;23.23;;;7.60;83.70;;;;;;5055221;28;20033;-74
2021/04/05 06:08:16;;;;;;;45.67;23.67;;;7.60;84.00;;;;;;5066151;28;20021;-74
2021/04/05 06:11:15;;;;;;;44.63;22.90;;;7.60;83.90;;;;;;5066660;28;20381;-74
2021/04/05 06:13:43;;;;;;;;;;;7.70;83.90;;;;;;5058002;28;20437;-74
2021/04/05 06:16:33;;;;;;;52.38;25.13;;;7.70;84.10;;;;;;5051977;28;19913;-74
2021/04/05 06:18:59;;;;;;;45.88;23.83;;;7.70;84.40;;;;;;5056305;28;20027;-74
2021/04/05 06:21:46;;;;;;;49.58;22.58;;;7.70;84.10;;;;;;5054499;28;20021;-74
2021/04/05 06:24:19;;;;;;;41.92;20.65;;;7.70;84.40;;;;;;5068590;28;20029;-74
2021/04/05 06:27:08;;;;;;;50.47;24.35;;;7.70;84.20;;;;;;5069728;28;20032;-74
2021/04/05 06:29:47;;;;;;;45.60;22.27;;;7.70;84.20;;;;;;5031946;28;20495;-74
2021/04/05 06:32:22;;;;;;;49.00;24.50;;;7.80;84.50;;;;;;5050519;28;20032;-74
2021/04/05 06:35:08;;;;;;;39.03;20.85;;;7.80;84.60;;;;;;5070065;28;20025;-74
2021/04/05 06:37:44;;;;;;;43.42;21.92;;;7.80;84.50;;;;;;5053180;28;20055;-74
2021/04/05 06:40:14;;;;;;;47.70;22.50;;;7.80;85.10;;;;;;5065796;28;20021;-74
2021/04/05 06:42:52;;;;;;;48.17;22.10;;;7.90;84.40;;;;;;5056778;28;20060;-74
2021/04/05 06:45:29;;;;;;;37.95;19.95;;;7.90;84.60;;;;;;5033022;28;20025;-74
2021/04/05 06:48:32;;;;;;;34.10;20.35;;;7.90;84.50;;;;;;5048978;28;20029;-74
2021/04/05 06:51:19;;;;;;;37.55;19.75;;;7.90;85.10;;;;;;5072923;28;20489;-74
2021/04/05 06:54:19;;;;;;;31.13;19.40;;;7.90;85.00;;;;;;5059903;28;20481;-74
2021/04/05 06:56:53;;;;;;;42.03;22.15;;;8.00;85.40;;;;;;5055914;28;20128;-74
2021/04/05 06:59:53;;;;;;;36.63;19.90;;;7.90;85.40;;;;;;5048300;28;20021;-74
2021/04/05 07:02:56;;;;;;;36.67;19.65;;;8.00;85.40;;;;;;5058232;28;20112;-74
2021/04/05 07:05:52;;;;;;;39.75;19.48;;;8.10;85.30;;;;;;5055777;28;20127;-74
2021/04/05 07:08:40;;;;;;;35.13;20.23;;;8.10;85.30;;;;;;5048313;28;20477;-73
2021/04/05 07:11:15;;;;;;;43.03;19.97;;;8.10;85.70;;;;;;5048973;28;20037;-73
2021/04/05 07:14:00;;;;;;;48.85;24.02;;;8.10;85.90;;;;;;5055529;28;20052;-73
2021/04/05 07:16:36;;;;;;;33.22;14.75;;;8.00;87.70;;;;;;5062301;28;20032;-72
2021/04/05 07:19:34;;;;;;;19.98;10.82;;;7.80;87.10;;;;;;5059197;28;20508;-72
2021/04/05 07:22:15;;;;;;;12.10;5.70;;;7.40;85.50;;;;;;5056421;28;20021;-74
2021/04/05 07:25:01;;;;;;;11.07;4.85;;;7.10;86.10;;;;;;5054457;28;20037;-74
2021/04/05 07:27:33;;;;;;;10.90;4.47;;;6.80;86.60;;;;;;5051688;28;20025;-74
2021/04/05 07:30:09;;;;;;;17.20;3.70;;;6.60;88.20;;;;;;5052231;28;20049;-74
2021/04/05 07:32:58;;;;;;;9.90;3.03;;;6.50;88.10;;;;;;5054067;28;20032;-74
2021/04/05 07:35:43;;;;;;;7.63;2.83;;;6.40;88.40;;;;;;5050423;28;20032;-74
2021/04/05 07:38:18;;;;;;;7.47;3.28;;;6.30;88.90;;;;;;5051316;28;20272;-75
2021/04/05 07:40:49;;;;;;;11.38;2.88;;;6.20;89.40;;;;;;5060099;28;20044;-75
2021/04/05 07:43:53;;;;;;;13.90;3.25;;;6.20;89.70;;;;;;5057436;28;20433;-74
2021/04/05 07:46:34;;;;;;;6.10;2.60;;;6.20;90.00;;;;;;5039234;28;20041;-74
2021/04/05 07:49:19;;;;;;;6.50;2.75;;;6.20;90.00;;;;;;5068843;28;20547;-74
2021/04/05 07:52:06;;;;;;;5.57;2.33;;;6.20;90.00;;;;;;5090806;28;20046;-74
2021/04/05 07:54:36;;;;;;;6.32;2.75;;;6.20;89.70;;;;;;5095506;28;20032;-74
2021/04/05 07:57:29;;;;;;;6.13;1.95;;;6.20;89.60;;;;;;5095310;28;20123;-74
2021/04/05 08:00:23;;;;;;;9.00;2.45;;;6.20;89.40;;;;;;5111068;28;20052;-73
2021/04/05 08:03:08;;;;;;;5.60;1.48;;;6.20;89.40;;;;;;5075537;28;20040;-73
2021/04/05 08:06:03;;;;;;;9.27;2.20;;;6.10;89.40;;;;;;5094237;28;20032;-73
2021/04/05 08:08:50;;;;;;;10.27;2.72;;;6.10;89.30;;;;;;5088207;28;20060;-73
2021/04/05 08:11:26;;;;;;;15.13;2.63;;;6.10;89.90;;;;;;5095120;28;20099;-73
2021/04/05 08:14:29;;;;;;;7.38;2.08;;;6.10;90.10;;;;;;5094826;28;20031;-73
2021/04/05 08:16:59;;;;;;;14.07;2.83;;;6.00;90.10;;;;;;5092186;28;20080;-73
2021/04/05 08:19:43;;;;;;;;;;;6.00;90.10;;;;;;5095550;28;20022;-73
2021/04/05 08:22:31;;;;;;;14.60;2.88;;;5.90;90.20;;;;;;5094728;28;19995;-73
2021/04/05 08:25:45;;;;;;;9.73;2.50;;;5.90;90.60;;;;;;5100447;28;20118;-73
2021/04/05 08:28:50;;;;;;;14.98;3.15;;;5.90;90.70;;;;;;5091256;28;20302;-73
2021/04/05 08:31:27;;;;;;;10.98;2.90;;;5.80;90.60;;;;;;5094092;28;20020;-73
2021/04/05 08:34:30;;;;;;;13.73;3.40;;;5.80;90.70;;;;;;5094983;28;20024;-73
2021/04/05 08:37:08;;;;;;;15.32;2.30;;;5.80;90.80;;;;;;5108253;28;20031;-73
2021/04/05 08:39:44;;;;;;;4.68;1.60;;;5.80;90.30;;;;;;5094318;28;20088;-73
2021/04/05 08:42:18;;;;;;;5.22;1.15;;;5.60;89.60;;;;;;5092080;28;20380;-73
2021/04/05 08:45:22;;;;;;;8.30;1.42;;;5.50;89.00;;;;;;5094330;28;20024;-73
2021/04/05 08:48:03;;;;;;;10.23;1.60;;;5.30;87.50;;;;;;5089137;28;20032;-73
2021/04/05 08:50:31;;;;;;;6.68;1.35;;;5.10;87.20;;;;;;5066466;28;20409;-73
2021/04/05 08:52:58;;;;;;;9.52;1.85;;;5.00;87.70;;;;;;5063499;28;20028;-73
2021/04/05 08:55:28;;;;;;;13.45;1.52;;;5.00;88.10;;;;;;5055402;28;20029;-73
2021/04/05 08:58:26;;;;;;;11.00;2.17;;;5.00;88.30;;;;;;5054126;28;20017;-73
2021/04/05 09:00:57;;;;;;;14.57;1.75;;;5.10;87.70;;;;;;5053763;28;20098;-73
2021/04/05 09:03:27;;;;;;;16.90;2.30;;;5.10;87.20;;;;;;5056577;28;20634;-73
2021/04/05 09:05:54;;;;;;;17.95;2.22;;;5.10;86.90;;;;;;5054572;28;20029;-73
2021/04/05 09:08:22;;;;;;;13.27;2.20;;;5.10;86.60;;;;;;5043739;28;20484;-73
2021/04/05 09:10:50;;;;;;;20.02;2.55;;;5.10;85.80;;;;;;5061678;28;20033;-73
2021/04/05 09:13:24;;;;;;;11.35;1.75;;;5.00;85.40;;;;;;5053436;28;20359;-73
2021/04/05 09:15:52;;;;;;;15.80;1.83;;;4.90;85.10;;;;;;5053561;28;20024;-73
2021/04/05 09:18:45;;;;;;;13.73;2.00;;;4.90;85.20;;;;;;5062807;28;20039;-73
2021/04/05 09:21:32;;;;;;;21.45;3.15;;;4.90;85.10;;;;;;5055863;28;20021;-73
2021/04/05 09:24:23;;;;;;;18.90;2.42;;;4.70;85.20;;;;;;5058006;28;20070;-73
2021/04/05 09:27:19;;;;;;;18.23;2.00;;;4.60;86.20;;;;;;5058245;28;20503;-73
2021/04/05 09:30:49;;;;;;;19.48;2.50;;;4.50;85.50;;;;;;5052689;28;20035;-72
2021/04/05 09:33:42;;;;;;;14.20;2.65;;;4.50;86.60;;;;;;5053669;28;20055;-72
2021/04/05 09:36:49;;;;;;;20.15;2.70;;;4.50;86.50;;;;;;5027628;28;20037;-76
2021/04/05 09:39:44;;;;;;;13.98;2.42;;;4.60;85.70;;;;;;5051763;28;20044;-73
2021/04/05 09:42:21;;;;;;;14.15;2.17;;;4.60;85.60;;;;;;5054085;28;20108;-74
2021/04/05 09:45:02;;;;;;;14.55;2.17;;;4.70;83.30;;;;;;5058744;28;20446;-74
2021/04/05 09:48:00;;;;;;;21.77;3.10;;;4.70;83.00;;;;;;5063089;28;20033;-73
2021/04/05 09:50:29;;;;;;;21.30;3.00;;;4.70;83.10;;;;;;5082724;28;20035;-74
2021/04/05 09:53:22;;;;;;;21.05;2.72;;;4.80;83.80;;;;;;5113089;27;20034;-74
2021/04/05 09:55:52;;;;;;;14.40;2.60;;;4.90;82.20;;;;;;5093387;28;20492;-74
2021/04/05 09:58:27;;;;;;;16.33;2.70;;;4.90;82.90;;;;;;5094624;28;20028;-74
2021/04/05 10:01:06;;;;;;;17.38;2.53;;;4.90;81.90;;;;;;5093633;28;20031;-74
2021/04/05 10:03:37;;;;;;;;;;;5.00;81.80;;;;;;5094045;28;20020;-74
2021/04/05 10:06:05;;;;;;;14.13;2.50;;;5.00;81.90;;;;;;5075121;28;19918;-74
2021/04/05 10:08:33;;;;;;;15.55;2.80;;;5.10;82.60;;;;;;5093672;28;20051;-74
2021/04/05 10:11:03;;;;;;;13.32;2.47;;;5.30;82.90;;;;;;5093418;28;20024;-74
2021/04/05 10:13:30;;;;;;;10.05;2.08;;;5.40;80.30;;;;;;5093361;28;20059;-74
2021/04/05 10:16:00;;;;;;;13.30;2.38;;;5.50;80.40;;;;;;5097308;28;20035;-74
2021/04/05 10:18:27;;;;;;;13.48;2.20;;;5.60;78.50;;;;;;5093837;28;20020;-74
2021/04/05 10:20:54;;;;;;;18.88;2.13;;;5.70;78.00;;;;;;5093211;28;20097;-74
2021/04/05 10:23:32;;;;;;;11.05;1.95;;;5.80;77.40;;;;;;5092798;28;20028;-74
2021/04/05 10:26:00;;;;;;;4.70;1.42;;;5.80;75.90;;;;;;5092143;28;20031;-74
2021/04/05 10:28:30;;;;;;;13.27;2.05;;;5.80;75.10;;;;;;5075166;28;20373;-74
2021/04/05 10:31:03;;;;;;;8.68;2.15;;;5.80;74.30;;;;;;5094745;28;20032;-74
2021/04/05 10:33:36;;;;;;;12.40;1.88;;;5.90;76.50;;;;;;5089891;28;20027;-74
2021/04/05 10:36:06;;;;;;;9.80;1.63;;;6.00;76.30;;;;;;5099051;28;20015;-74
2021/04/05 10:38:34;;;;;;;4.85;1.00;;;6.10;73.30;;;;;;5094414;28;20031;-74
2021/04/05 10:41:00;;;;;;;5.80;1.10;;;5.90;72.30;;;;;;5074424;28;20024;-74
2021/04/05 10:43:33;;;;;;;6.78;0.98;;;5.40;75.10;;;;;;5093228;28;20046;-74
2021/04/05 10:46:05;;;;;;;3.60;0.90;;;5.10;77.30;;;;;;5085633;28;20062;-74
2021/04/05 10:48:42;;;;;;;3.78;0.85;;;4.90;75.70;;;;;;5088262;28;20388;-74
2021/04/05 10:51:18;;;;;;;7.30;1.08;;;4.90;72.50;;;;;;5089170;28;20067;-73
2021/04/05 10:53:47;;;;;;;5.68;1.08;;;5.00;70.80;;;;;;5090826;28;20418;-74
2021/04/05 10:56:14;;;;;;;4.03;1.00;;;5.10;69.90;;;;;;5091261;28;20186;-74
2021/04/05 10:59:00;;;;;;;6.43;1.00;;;5.20;71.70;;;;;;5089979;28;20408;-73
2021/04/05 11:01:29;;;;;;;4.72;0.95;;;5.40;71.10;;;;;;5088262;28;20020;-74
2021/04/05 11:03:58;;;;;;;4.38;1.02;;;5.70;71.30;;;;;;5092816;28;20054;-73
2021/04/05 11:06:25;;;;;;;6.82;0.98;;;5.80;67.80;;;;;;5069867;28;20027;-71
2021/04/05 11:08:52;;;;;;;6.18;1.00;;;6.00;66.30;;;;;;5086569;28;20035;-74
2021/04/05 11:11:23;;;;;;;6.35;1.75;;;6.00;64.30;;;;;;5068095;28;20036;-74
2021/04/05 11:13:52;;;;;;;7.85;1.60;;;6.10;66.30;;;;;;5085682;28;20096;-71
2021/04/05 11:16:19;;;;;;;;;;;6.10;63.20;;;;;;5072691;28;20111;-73
2021/04/05 11:18:53;;;;;;;11.48;1.67;;;6.10;63.10;;;;;;5071432;28;19907;-74
2021/04/05 11:21:22;;;;;;;12.32;2.13;;;6.20;61.90;;;;;;5082048;28;20024;-74
2021/04/05 11:23:58;;;;;;;12.45;1.70;;;6.30;60.70;;;;;;5082068;28;20020;-74
2021/04/05 11:26:31;;;;;;;12.43;1.65;;;6.30;58.80;;;;;;5093064;28;20036;-73
2021/04/05 11:29:00;;;;;;;10.25;1.48;;;6.20;59.00;;;;;;5107041;28;20028;-74
2021/04/05 11:31:27;;;;;;;11.82;1.38;;;6.20;59.30;;;;;;5092911;28;20024;-74
2021/04/05 11:33:56;;;;;;;9.88;1.83;;;6.30;61.30;;;;;;5074011;28;20066;-72
2021/04/05 11:36:23;;;;;;;12.32;1.75;;;6.40;62.40;;;;;;5073796;28;20032;-73
2021/04/05 11:38:51;;;;;;;11.77;1.70;;;6.40;61.50;;;;;;5073107;28;20135;-72
2021/04/05 11:41:25;;;;;;;15.63;1.95;;;6.50;62.10;;;;;;5091251;28;20099;-72
2021/04/05 11:43:56;;;;;;;12.38;2.03;;;6.40;57.40;;;;;;5094757;28;20027;-74
2021/04/05 11:46:30;;;;;;;12.18;2.15;;;6.40;57.60;;;;;;5094742;28;20426;-74
2021/04/05 11:49:28;;;;;;;12.75;2.35;;;6.50;57.20;;;;;;5090078;28;21750;-74
2021/04/05 11:52:05;;;;;;;12.55;1.83;;;6.50;56.80;;;;;;5071148;28;20044;-74
2021/04/05 11:55:00;;;;;;;16.88;2.42;;;6.30;59.80;;;;;;5068976;28;20028;-72
2021/04/05 11:57:37;;;;;;;19.30;2.60;;;6.00;59.80;;;;;;5098420;28;20060;-74
2021/04/05 12:00:11;;;;;;;16.70;1.92;;;5.80;61.80;;;;;;5071121;28;20025;-75
2021/04/05 12:02:44;;;;;;;18.92;1.83;;;6.00;59.30;;;;;;5101513;28;20575;-74
2021/04/05 12:05:22;;;;;;;10.93;1.88;;;6.20;60.00;;;;;;5073668;28;20127;-75
2021/04/05 12:07:55;;;;;;;17.20;2.05;;;6.40;57.40;;;;;;5070942;28;20048;-75
2021/04/05 12:10:24;;;;;;;22.50;2.85;;;6.40;56.00;;;;;;5072384;28;20220;-75
2021/04/05 12:13:07;;;;;;;23.13;2.22;;;6.30;56.60;;;;;;5071250;28;20404;-76
2021/04/05 12:15:34;;;;;;;13.50;2.10;;;6.20;55.30;;;;;;5071405;28;20028;-76
2021/04/05 12:18:01;;;;;;;8.85;2.15;;;6.20;54.40;;;;;;5064220;28;20025;-80
2021/04/05 12:20:30;;;;;;;8.63;1.60;;;6.60;53.50;;;;;;5056426;28;20029;-80
2021/04/05 12:22:59;;;;;;;12.52;1.83;;;6.90;51.50;;;;;;5068684;28;20354;-80
2021/04/05 12:25:39;;;;;;;11.52;1.52;;;7.00;51.10;;;;;;5073779;28;20530;-79
2021/04/05 12:28:08;;;;;;;10.52;1.70;;;6.90;53.70;;;;;;5065326;28;20124;-79
2021/04/05 12:30:35;;;;;;;11.27;1.58;;;6.80;51.10;;;;;;5069456;28;20090;-79
2021/04/05 12:33:04;;;;;;;10.02;1.70;;;6.60;51.60;;;;;;5074088;28;20033;-79
2021/04/05 12:35:31;;;;;;;10.27;1.50;;;6.80;52.90;;;;;;5074455;28;20024;-79
2021/04/05 12:38:06;;;;;;;8.30;1.70;;;7.00;53.10;;;;;;5073142;28;20454;-80
2021/04/05 12:40:36;;;;;;;10.10;1.80;;;7.40;51.70;;;;;;5071741;28;20388;-78
2021/04/05 12:43:09;;;;;;;12.82;1.60;;;7.70;51.40;;;;;;5104791;28;20050;-75
2021/04/05 12:45:35;;;;;;;6.95;1.30;;;7.90;47.60;;;;;;5071814;28;20028;-73
2021/04/05 12:48:03;;;;;;;7.15;1.08;;;8.00;48.60;;;;;;5071385;28;20028;-73
2021/04/05 12:50:33;;;;;;;6.72;1.20;;;8.10;45.90;;;;;;5087263;28;20526;-72
2021/04/05 12:53:04;;;;;;;5.78;1.48;;;8.20;46.90;;;;;;5100567;28;20376;-73
2021/04/05 12:55:39;;;;;;;5.20;1.02;;;8.40;45.50;;;;;;5090939;28;20043;-73
2021/04/05 12:58:06;;;;;;;3.30;0.90;;;8.50;44.90;;;;;;5073245;28;20119;-73
2021/04/05 13:00:37;;;;;;;6.95;1.08;;;8.60;44.50;;;;;;5090069;28;20036;-73
2021/04/05 13:03:29;;;;;;;10.43;1.40;;;8.50;44.90;;;;;;5095746;28;20031;-74
2021/04/05 13:06:01;;;;;;;8.13;1.20;;;8.20;44.10;;;;;;5077091;28;20496;-73
2021/04/05 13:08:42;;;;;;;6.20;1.45;;;8.30;44.60;;;;;;5075310;28;20070;-73
2021/04/05 13:11:25;;;;;;;7.18;1.40;;;8.40;44.60;;;;;;5095019;28;20146;-72
2021/04/05 13:14:08;;;;;;;4.72;0.90;;;8.50;41.10;;;;;;5087678;28;20025;-73
2021/04/05 13:16:37;;;;;;;7.97;1.30;;;8.10;39.80;;;;;;5073920;28;20032;-73
2021/04/05 13:19:10;;;;;;;12.15;1.60;;;7.70;41.70;;;;;;5089208;28;20377;-74
2021/04/05 13:21:38;;;;;;;22.67;1.88;;;7.60;44.50;;;;;;5091352;28;20028;-72
2021/04/05 13:24:27;;;;;;;31.05;1.77;;;7.30;47.50;;;;;;5073415;28;20036;-71
2021/04/05 13:26:55;;;;;;;;;;;6.80;52.40;;;;;;5093567;28;20031;-73